Time;durP1;ratioP1;P1;durP2;ratioP2;P2;SDS_P1;SDS_P2;PMS_P1;PMS_P2;Temp;Humidity;BMP_temperature;BMP_pressure;BME280_temperature;BME280_humidity;BME280_pressure;Samples;Min_cycle;Max_cycle;Signal;HPM_P1;HPM_P2
2021/04/21 00:01:01;;;;;;;15.40;13.80;;;;;;;13.39;54.98;97782.34;8396347;28;20218;-67
2021/04/21 00:05:05;;;;;;;18.37;13.67;;;;;;;13.48;55.09;97784.41;8364515;28;20208;-67
2021/04/21 00:09:10;;;;;;;18.20;13.60;;;;;;;13.46;55.14;97783.66;8384748;28;20203;-67
2021/04/21 00:13:12;;;;;;;16.37;14.13;;;;;;;13.30;55.59;97780.28;8391991;28;20289;-67
2021/04/21 00:17:15;;;;;;;16.67;13.10;;;;;;;13.38;55.48;97772.03;8388600;28;20272;-68
2021/04/21 00:21:17;;;;;;;15.10;13.27;;;;;;;13.38;54.84;97779.81;8395073;28;20191;-67
2021/04/21 00:25:19;;;;;;;15.00;13.50;;;;;;;13.24;55.24;97778.00;8396934;28;20241;-67
2021/04/21 00:29:21;;;;;;;15.90;13.40;;;;;;;13.18;55.19;97768.78;8394405;28;20238;-67
2021/04/21 00:33:24;;;;;;;15.43;13.67;;;;;;;13.11;55.11;97770.06;8395414;28;20230;-67
2021/04/21 00:37:28;;;;;;;15.43;13.20;;;;;;;13.16;54.93;97775.84;8395833;28;20210;-67
2021/04/21 00:41:43;;;;;;;14.40;12.90;;;;;;;13.04;55.49;97769.59;8396195;28;20504;-67
2021/04/21 00:45:50;;;;;;;13.83;12.50;;;;;;;13.00;55.71;97759.44;8396193;28;20196;-67
2021/04/21 00:49:57;;;;;;;14.03;12.60;;;;;;;12.89;55.78;97753.13;8396247;28;20195;-67
2021/04/21 00:54:07;;;;;;;16.87;12.67;;;;;;;12.95;55.39;97761.50;8394283;28;20241;-67
2021/04/21 00:58:11;;;;;;;14.00;12.60;;;;;;;12.88;55.39;97756.63;8394438;28;20213;-67
2021/04/21 01:02:14;;;;;;;15.87;12.07;;;;;;;12.92;55.02;97746.91;8394289;28;20333;-67
2021/04/21 01:06:21;;;;;;;13.77;12.30;;;;;;;12.94;54.75;97745.03;8394555;28;20207;-67
2021/04/21 01:10:24;;;;;;;14.40;12.57;;;;;;;12.66;55.27;97733.63;8400861;28;20202;-67
2021/04/21 01:14:27;;;;;;;21.00;12.77;;;;;;;12.82;55.11;97746.59;8400389;28;20281;-67
2021/04/21 01:18:31;;;;;;;15.47;12.90;;;;;;;12.79;54.90;97738.13;8400995;28;20210;-67
2021/04/21 01:22:44;;;;;;;13.60;12.20;;;;;;;12.77;54.89;97737.38;8400720;28;20203;-67
2021/04/21 01:27:03;;;;;;;14.63;12.93;;;;;;;12.69;55.13;97743.00;8400412;28;20214;-67
2021/04/21 01:31:06;;;;;;;14.43;12.93;;;;;;;12.80;55.17;97740.66;8400104;28;20250;-67
2021/04/21 01:35:09;;;;;;;13.17;11.77;;;;;;;12.70;55.25;97742.94;8399978;28;20694;-67
2021/04/21 01:39:12;;;;;;;16.10;12.27;;;;;;;12.68;55.69;97743.94;8399999;28;20203;-67
2021/04/21 01:43:18;;;;;;;16.67;13.07;;;;;;;12.67;55.46;97742.25;8399847;28;20581;-67
2021/04/21 01:47:22;;;;;;;14.47;12.97;;;;;;;12.62;55.69;97742.53;8399860;28;20370;-67
2021/04/21 01:51:27;;;;;;;13.87;12.33;;;;;;;12.59;55.76;97745.28;8399494;28;20203;-67
2021/04/21 01:55:38;;;;;;;14.87;12.27;;;;;;;12.64;55.59;97743.28;8399339;28;20259;-67
2021/04/21 01:59:42;;;;;;;13.60;12.27;;;;;;;12.52;55.79;97739.59;8399487;28;20223;-67
2021/04/21 02:03:48;;;;;;;15.67;12.57;;;;;;;12.52;55.96;97743.94;8399140;28;20211;-67
2021/04/21 02:07:57;;;;;;;13.10;11.80;;;;;;;12.55;55.55;97745.56;8399180;28;20249;-67
2021/04/21 02:12:06;;;;;;;12.57;11.37;;;;;;;12.53;55.28;97743.03;8399151;28;20203;-67
2021/04/21 02:16:25;;;;;;;14.77;12.90;;;;;;;12.35;55.45;97742.28;8398934;28;20242;-67
2021/04/21 02:20:34;;;;;;;14.67;12.50;;;;;;;12.41;55.53;97743.72;8398677;28;20576;-67
2021/04/21 02:24:47;;;;;;;16.60;13.30;;;;;;;12.33;55.63;97749.31;8398872;28;20203;-67
2021/04/21 02:28:53;;;;;;;15.13;13.10;;;;;;;12.32;55.49;97753.69;8399377;28;20219;-67
2021/04/21 02:33:03;;;;;;;15.37;12.47;;;;;;;12.35;55.46;97749.25;8398856;28;20242;-67
2021/04/21 02:37:09;;;;;;;13.87;12.30;;;;;;;12.29;55.32;97747.81;8398276;28;20195;-67
2021/04/21 02:41:13;;;;;;;16.13;12.33;;;;;;;12.27;55.60;97749.66;8398545;28;20195;-67
2021/04/21 02:45:20;;;;;;;14.87;12.90;;;;;;;12.14;55.92;97749.50;8398074;28;20210;-67
2021/04/21 02:49:36;;;;;;;14.93;12.63;;;;;;;12.21;56.07;97755.19;8398167;28;20195;-67
2021/04/21 02:53:45;;;;;;;15.03;13.07;;;;;;;12.22;55.69;97749.06;8397741;28;20227;-67
2021/04/21 02:57:54;;;;;;;14.33;12.87;;;;;;;12.19;55.86;97749.25;8397721;28;20210;-67
2021/04/21 03:01:58;;;;;;;14.37;12.97;;;;;;;12.13;56.25;97740.88;8397592;28;20203;-67
2021/04/21 03:06:03;;;;;;;16.67;12.93;;;;;;;12.11;55.72;97742.72;8397742;28;20203;-67
2021/04/21 03:10:10;;;;;;;17.03;12.83;;;;;;;12.15;56.13;97739.94;8397709;28;20509;-67
2021/04/21 03:14:15;;;;;;;16.20;12.87;;;;;;;12.10;56.05;97741.03;8397091;28;20227;-67
2021/04/21 03:18:19;;;;;;;16.97;13.67;;;;;;;12.11;55.66;97734.94;8397380;28;20553;-67
2021/04/21 03:22:22;;;;;;;14.33;12.83;;;;;;;12.09;55.55;97741.13;8396813;28;20214;-67
2021/04/21 03:26:26;;;;;;;13.97;12.43;;;;;;;12.02;55.36;97739.78;8396883;28;20203;-67
2021/04/21 03:30:30;;;;;;;14.33;12.90;;;;;;;11.96;55.48;97746.13;8395651;28;20235;-67
2021/04/21 03:34:33;;;;;;;13.93;12.63;;;;;;;12.00;55.80;97747.66;8396616;28;20233;-67
2021/04/21 03:38:35;;;;;;;14.27;12.57;;;;;;;11.87;56.08;97744.81;8396852;28;20200;-67
2021/04/21 03:42:38;;;;;;;14.37;12.87;;;;;;;11.81;56.19;97739.97;8396590;28;20207;-67
2021/04/21 03:46:43;;;;;;;14.87;12.43;;;;;;;11.74;55.67;97752.41;8396526;28;20626;-67
2021/04/21 03:50:46;;;;;;;17.17;13.30;;;;;;;11.63;56.42;97740.94;8396007;28;20712;-67
2021/04/21 03:54:48;;;;;;;17.07;14.17;;;;;;;11.71;56.15;97738.78;8395819;28;20223;-67
2021/04/21 03:58:53;;;;;;;16.00;13.80;;;;;;;11.73;55.97;97745.56;8395809;28;20198;-67
2021/04/21 04:02:58;;;;;;;16.90;14.47;;;;;;;11.70;56.20;97740.53;8396180;28;20567;-67
2021/04/21 04:07:06;;;;;;;15.27;13.53;;;;;;;11.73;56.02;97742.97;8395900;28;20211;-67
2021/04/21 04:11:12;;;;;;;16.67;14.23;;;;;;;11.73;55.79;97739.53;8395410;28;20195;-67
2021/04/21 04:15:15;;;;;;;20.93;14.80;;;;;;;11.64;56.61;97735.66;8395310;28;20230;-67
2021/04/21 04:19:18;;;;;;;16.67;14.00;;;;;;;11.67;56.42;97739.84;8395345;28;20576;-67
2021/04/21 04:23:20;;;;;;;20.57;14.47;;;;;;;11.66;56.46;97740.78;8395381;28;20661;-67
2021/04/21 04:27:23;;;;;;;15.63;14.03;;;;;;;11.68;56.46;97747.56;8395681;28;20634;-67
2021/04/21 04:31:27;;;;;;;16.37;13.27;;;;;;;11.65;56.26;97746.88;8395486;28;20265;-67
2021/04/21 04:35:29;;;;;;;16.13;12.33;;;;;;;11.65;56.34;97755.50;8395229;28;20603;-67
2021/04/21 04:39:31;;;;;;;18.40;15.77;;;;;;;11.57;55.82;97752.47;8395638;28;20202;-67
2021/04/21 04:43:34;;;;;;;16.23;13.70;;;;;;;11.63;55.90;97756.50;8394828;28;20203;-67
2021/04/21 04:47:42;;;;;;;17.47;14.27;;;;;;;11.47;56.32;97759.03;8395043;28;20203;-67
2021/04/21 04:51:46;;;;;;;17.40;14.37;;;;;;;11.43;56.36;97760.97;8395529;28;20206;-67
2021/04/21 04:55:48;;;;;;;17.70;14.20;;;;;;;11.41;56.27;97765.38;8395115;28;20227;-67
2021/04/21 04:59:50;;;;;;;15.53;13.87;;;;;;;11.50;56.12;97766.69;8395236;28;20206;-67
2021/04/21 05:03:54;;;;;;;17.97;13.17;;;;;;;11.59;56.34;97770.53;8394606;28;20199;-67
2021/04/21 05:07:59;;;;;;;17.57;14.23;;;;;;;11.37;56.53;97766.47;8393853;28;20202;-67
2021/04/21 05:12:02;;;;;;;15.40;12.90;;;;;;;11.54;56.03;97776.81;8396105;28;20214;-67
2021/04/21 05:16:43;;;;;;;17.43;12.87;;;;;;;11.51;56.14;97770.94;8396123;28;20556;-67
2021/04/21 05:21:23;;;;;;;17.47;12.73;;;;;;;11.78;55.39;97776.44;8396200;28;20551;-67
2021/04/21 05:26:06;;;;;;;16.50;12.70;;;;;;;11.76;55.26;97788.66;8396090;28;20191;-66
2021/04/21 05:30:42;;;;;;;17.47;12.47;;;;;;;11.87;55.41;97786.34;8396294;28;20238;-67
2021/04/21 05:35:26;;;;;;;15.57;12.43;;;;;;;12.15;54.50;97786.66;8396252;28;20211;-67
2021/04/21 05:40:24;;;;;;;17.83;12.80;;;;;;;12.15;55.08;97794.44;8396162;28;20188;-67
2021/04/21 05:45:09;;;;;;;13.83;12.43;;;;;;;12.30;54.56;97796.25;8394884;28;20212;-67
2021/04/21 05:49:47;;;;;;;19.00;13.53;;;;;;;12.30;55.09;97802.28;8395110;28;20188;-68
2021/04/21 05:54:03;;;;;;;15.20;12.00;;;;;;;12.11;55.19;97804.19;8395419;28;20238;-67
2021/04/21 05:58:41;;;;;;;13.70;11.97;;;;;;;12.35;54.60;97796.81;8401290;28;20188;-67
2021/04/21 06:02:45;;;;;;;13.93;11.43;;;;;;;12.56;54.25;97802.59;8400783;28;20191;-68
2021/04/21 06:06:47;;;;;;;14.00;11.77;;;;;;;12.75;53.93;97796.41;8397857;28;20494;-68
2021/04/21 06:10:49;;;;;;;14.97;11.43;;;;;;;12.82;53.83;97798.56;8399698;28;20199;-68
2021/04/21 06:14:52;;;;;;;14.17;12.20;;;;;;;13.09;53.09;97797.91;8397864;28;20218;-68
2021/04/21 06:18:56;;;;;;;19.83;12.37;;;;;;;13.10;52.76;97800.44;8399492;28;20283;-68
2021/04/21 06:23:03;;;;;;;15.53;12.50;;;;;;;13.15;53.14;97804.53;8400614;28;20596;-68
2021/04/21 06:27:07;;;;;;;15.00;13.50;;;;;;;13.10;52.82;97803.03;8399199;28;20614;-68
2021/04/21 06:31:11;;;;;;;16.67;14.63;;;;;;;13.22;52.19;97805.88;8399946;28;20231;-68
2021/04/21 06:35:14;;;;;;;23.40;15.20;;;;;;;13.39;52.75;97813.56;8398926;28;20234;-69
2021/04/21 06:39:20;;;;;;;19.87;13.17;;;;;;;14.10;57.72;97816.31;8398772;28;20203;-68
2021/04/21 06:43:26;;;;;;;19.53;14.97;;;;;;;14.34;50.47;97814.81;8395951;28;20203;-68
2021/04/21 06:47:29;;;;;;;18.37;15.33;;;;;;;14.73;49.52;97817.66;8398868;28;20203;-68
2021/04/21 06:51:32;;;;;;;19.30;15.30;;;;;;;14.86;48.21;97808.09;8398452;28;20596;-68
2021/04/21 06:55:36;;;;;;;18.03;15.67;;;;;;;15.04;48.47;97811.28;8399545;28;20230;-68
2021/04/21 06:59:38;;;;;;;20.67;16.23;;;;;;;15.01;49.01;97817.53;8397767;28;20285;-67
2021/04/21 07:03:43;;;;;;;17.50;15.13;;;;;;;15.07;49.48;97813.72;8399614;28;20214;-69
2021/04/21 07:07:46;;;;;;;18.70;15.70;;;;;;;15.57;48.48;97814.75;8398490;28;20286;-69
2021/04/21 07:11:56;;;;;;;19.10;17.03;;;;;;;15.49;47.62;97819.63;8398871;28;20215;-69
2021/04/21 07:15:59;;;;;;;18.57;16.57;;;;;;;15.95;47.99;97818.34;8398715;28;20234;-69
2021/04/21 07:20:02;;;;;;;21.07;17.10;;;;;;;16.41;47.37;97822.97;8397064;28;20203;-68
2021/04/21 07:24:05;;;;;;;23.07;18.97;;;;;;;16.45;46.17;97826.22;8397096;28;20276;-68
2021/04/21 07:28:07;;;;;;;23.03;16.73;;;;;;;16.75;45.81;97820.56;8396961;28;20196;-68
2021/04/21 07:32:20;;;;;;;23.40;18.23;;;;;;;16.92;45.24;97828.06;8397256;28;20246;-68
2021/04/21 07:36:26;;;;;;;22.60;18.70;;;;;;;17.30;44.79;97823.59;8397424;28;20253;-67
2021/04/21 07:40:34;;;;;;;27.20;21.13;;;;;;;17.20;44.17;97826.91;8397561;28;20187;-68
2021/04/21 07:44:38;;;;;;;22.23;18.87;;;;;;;17.55;44.39;97825.22;8396383;28;20199;-65
2021/04/21 07:48:44;;;;;;;22.33;19.27;;;;;;;17.66;43.00;97829.66;8396934;28;20211;-66
2021/04/21 07:52:48;;;;;;;22.57;18.77;;;;;;;17.86;43.14;97822.91;8397208;28;20650;-67
2021/04/21 07:57:03;;;;;;;21.17;11.70;;;;;;;18.88;46.67;97823.72;8396879;28;20226;-63
2021/04/21 08:01:05;;;;;;;20.30;14.13;;;;;;;19.56;41.98;97815.56;8398208;28;20191;-64
2021/04/21 08:05:08;;;;;;;17.43;14.50;;;;;;;19.87;40.50;97825.19;8398118;28;20312;-64
2021/04/21 08:09:11;;;;;;;22.40;14.47;;;;;;;20.13;39.16;97829.19;8397207;28;20199;-66
2021/04/21 08:13:14;;;;;;;17.87;13.57;;;;;;;20.27;38.95;97829.66;8398562;28;20206;-65
2021/04/21 08:17:18;;;;;;;18.93;14.97;;;;;;;20.11;38.91;97830.16;8396239;28;20231;-64
2021/04/21 08:21:33;;;;;;;19.27;15.80;;;;;;;20.01;38.02;97825.81;8398477;28;20576;-65
2021/04/21 08:25:54;;;;;;;18.63;15.13;;;;;;;20.30;36.43;97828.59;8397305;28;20415;-61
2021/04/21 08:29:56;;;;;;;18.03;12.90;;;;;;;20.76;36.82;97824.59;8396724;28;20246;-60
2021/04/21 08:33:58;;;;;;;23.77;12.77;;;;;;;21.34;36.04;97826.41;8397072;28;20618;-60
2021/04/21 08:37:59;;;;;;;17.87;13.17;;;;;;;21.45;35.38;97828.13;8396437;28;20211;-61
2021/04/21 08:42:03;;;;;;;18.97;11.90;;;;;;;20.98;35.08;97825.28;8396512;28;20195;-60
2021/04/21 08:46:06;;;;;;;15.07;13.23;;;;;;;20.92;34.39;97824.03;8396371;28;20210;-60
2021/04/21 08:50:10;;;;;;;13.17;11.47;;;;;;;21.46;34.23;97827.97;8395811;28;20227;-61
2021/04/21 08:54:13;;;;;;;12.40;10.00;;;;;;;21.76;33.80;97835.84;8395484;28;20264;-62
2021/04/21 08:58:16;;;;;;;11.20;8.87;;;;;;;21.93;33.22;97840.38;8394751;28;20210;-62
2021/04/21 09:02:18;;;;;;;10.73;9.07;;;;;;;22.13;31.83;97835.88;8394957;28;20207;-60
2021/04/21 09:06:20;;;;;;;14.77;9.40;;;;;;;21.90;32.56;97832.75;8396081;28;20238;-60
2021/04/21 09:10:22;;;;;;;18.30;10.70;;;;;;;21.97;32.41;97841.78;8394980;28;20629;-60
2021/04/21 09:14:25;;;;;;;12.70;8.70;;;;;;;22.19;31.99;97831.84;8394972;28;20250;-61
2021/04/21 09:18:28;;;;;;;13.67;9.63;;;;;;;21.98;32.73;97835.50;8395438;28;20298;-60
2021/04/21 09:22:30;;;;;;;16.80;9.50;;;;;;;21.87;32.47;97835.66;8395492;28;20201;-68
2021/04/21 09:26:34;;;;;;;10.03;9.03;;;;;;;21.80;32.17;97840.69;8395028;28;20312;-69
2021/04/21 09:30:39;;;;;;;10.00;8.70;;;;;;;21.76;32.69;97834.06;8398078;28;20237;-70
2021/04/21 09:34:47;;;;;;;17.17;9.40;;;;;;;22.84;30.69;97842.38;8402312;28;20622;-68
2021/04/21 09:38:49;;;;;;;14.50;9.07;;;;;;;22.30;32.02;97833.50;8400852;28;20338;-69
2021/04/21 09:42:54;;;;;;;12.23;9.43;;;;;;;22.55;31.31;97827.53;8402110;28;20260;-68
2021/04/21 09:46:59;;;;;;;11.73;9.13;;;;;;;22.08;32.16;97824.09;8400774;28;20211;-68
2021/04/21 09:51:03;;;;;;;13.13;9.10;;;;;;;22.28;32.35;97830.19;8401949;28;20507;-71
2021/04/21 09:55:14;;;;;;;14.70;9.23;;;;;;;22.28;31.74;97822.28;8400821;28;20230;-70
2021/04/21 09:59:26;;;;;;;10.30;9.27;;;;;;;21.75;32.70;97821.84;8401643;28;20195;-70
2021/04/21 10:03:29;;;;;;;15.83;10.40;;;;;;;21.15;34.22;97816.75;8401478;28;20628;-69
2021/04/21 10:07:31;;;;;;;11.27;9.43;;;;;;;21.72;32.14;97814.19;8400195;28;20543;-70
2021/04/21 10:11:33;;;;;;;12.70;9.77;;;;;;;21.44;32.82;97808.84;8401162;28;20195;-69
2021/04/21 10:15:35;;;;;;;10.70;8.50;;;;;;;21.04;34.42;97798.44;8400318;28;20664;-70
2021/04/21 10:19:39;;;;;;;10.17;8.77;;;;;;;20.99;34.73;97800.66;8401115;28;20207;-70
2021/04/21 10:23:41;;;;;;;11.53;8.73;;;;;;;22.13;33.07;97796.31;8400817;28;20290;-70
2021/04/21 10:27:43;;;;;;;12.00;9.97;;;;;;;22.20;30.97;97794.78;8400498;28;20257;-70
2021/04/21 10:31:46;;;;;;;11.60;10.20;;;;;;;22.18;29.96;97782.69;8399913;28;20686;-69
2021/04/21 10:35:49;;;;;;;13.13;9.50;;;;;;;22.70;30.37;97782.19;8399297;28;20220;-69
2021/04/21 10:39:53;;;;;;;13.07;11.60;;;;;;;22.19;29.47;97772.00;8399364;28;20196;-69
2021/04/21 10:44:12;;;;;;;15.30;11.13;;;;;;;22.32;28.69;97776.16;8399924;28;20508;-69
2021/04/21 10:48:38;;;;;;;12.30;11.00;;;;;;;21.63;32.10;97765.84;8400497;28;20195;-66
2021/04/21 10:52:43;;;;;;;11.63;8.63;;;;;;;21.48;33.20;97773.34;8398475;28;20202;-70
2021/04/21 10:56:45;;;;;;;13.93;8.67;;;;;;;21.19;33.47;97761.97;8399311;28;20649;-70
2021/04/21 11:00:48;;;;;;;10.90;8.57;;;;;;;20.86;33.22;97764.06;8398010;28;20237;-71
2021/04/21 11:05:03;;;;;;;10.10;7.90;;;;;;;20.43;31.46;97765.25;8399207;28;20649;-61
2021/04/21 11:09:08;;;;;;;9.73;4.83;;;;;;;19.75;30.98;97760.56;8398872;28;20207;-60
2021/04/21 11:13:11;;;;;;;4.73;4.20;;;;;;;19.73;30.15;97762.47;8398442;28;20520;-62
2021/04/21 11:17:13;;;;;;;4.37;3.00;;;;;;;20.13;30.36;97761.69;8397374;28;20226;-62
2021/04/21 11:21:19;;;;;;;4.30;3.30;;;;;;;20.58;30.45;97769.16;8397942;28;20249;-62
2021/04/21 11:25:28;;;;;;;5.03;3.30;;;;;;;21.20;35.97;97766.28;8398114;28;20203;-62
2021/04/21 11:29:31;;;;;;;5.70;4.10;;;;;;;21.33;34.45;97760.72;8398744;28;20237;-62
2021/04/21 11:33:57;;;;;;;4.30;3.63;;;;;;;21.66;28.52;97757.63;8398493;28;20608;-62
2021/04/21 11:37:59;;;;;;;4.30;3.90;;;;;;;21.17;29.48;97753.38;8398551;28;20611;-62
2021/04/21 11:42:22;;;;;;;5.00;4.30;;;;;;;21.05;28.92;97748.25;8398715;28;20274;-64
2021/04/21 11:46:57;;;;;;;7.63;6.70;;;;;;;21.04;30.78;97746.63;8397867;28;20199;-64
2021/04/21 11:51:14;;;;;;;9.73;6.70;;;;;;;20.83;32.12;97746.75;8398112;28;20220;-64
2021/04/21 11:55:22;;;;;;;6.57;5.53;;;;;;;21.84;30.07;97755.09;8397345;28;20207;-64
2021/04/21 11:59:25;;;;;;;8.53;5.60;;;;;;;21.85;30.09;97748.00;8396606;28;20207;-64
2021/04/21 12:03:29;;;;;;;7.70;5.50;;;;;;;22.02;29.62;97741.97;8396327;28;20209;-64
2021/04/21 12:07:31;;;;;;;6.00;5.40;;;;;;;21.58;29.54;97741.69;8398231;28;20627;-64
2021/04/21 12:11:34;;;;;;;5.90;5.30;;;;;;;22.02;29.69;97739.31;8396818;28;20657;-64
2021/04/21 12:15:37;;;;;;;8.07;6.10;;;;;;;22.41;28.90;97735.72;8397818;28;20288;-65
2021/04/21 12:19:39;;;;;;;8.20;7.30;;;;;;;21.95;28.44;97726.88;8397085;28;20579;-64
2021/04/21 12:23:42;;;;;;;9.37;6.53;;;;;;;22.57;27.57;97722.66;8397439;28;20195;-64
2021/04/21 12:27:44;;;;;;;7.83;7.03;;;;;;;22.64;27.30;97720.28;8397499;28;20219;-64
2021/04/21 12:31:47;;;;;;;11.20;8.30;;;;;;;22.28;28.68;97708.84;8396830;28;20234;-64
2021/04/21 12:35:52;;;;;;;11.07;9.33;;;;;;;21.72;29.67;97715.88;8395801;28;20578;-64
2021/04/21 12:39:54;;;;;;;10.37;9.27;;;;;;;21.23;29.76;97710.72;8396849;28;20205;-64
2021/04/21 12:43:56;;;;;;;10.60;9.50;;;;;;;20.92;31.31;97710.03;8396488;28;20207;-64
2021/04/21 12:47:58;;;;;;;10.53;8.17;;;;;;;22.10;28.76;97714.03;8395389;28;20283;-64
2021/04/21 12:52:01;;;;;;;10.23;9.13;;;;;;;22.79;28.49;97705.56;8395918;28;20207;-65
2021/04/21 12:56:05;;;;;;;9.13;8.23;;;;;;;21.67;29.46;97706.59;8395632;28;20219;-64
2021/04/21 13:00:08;;;;;;;11.33;9.23;;;;;;;21.27;30.31;97706.81;8395302;28;20203;-64
2021/04/21 13:04:12;;;;;;;10.30;9.20;;;;;;;20.68;30.52;97693.72;8399134;28;20214;-64
2021/04/21 13:08:18;;;;;;;10.47;9.23;;;;;;;20.42;30.66;97696.00;8401924;28;20326;-65
2021/04/21 13:12:21;;;;;;;9.90;8.83;;;;;;;20.54;31.06;97701.13;8402322;28;20212;-64
2021/04/21 13:16:26;;;;;;;9.20;8.27;;;;;;;20.36;32.01;97706.25;8401750;28;20231;-64
2021/04/21 13:20:38;;;;;;;9.97;7.50;;;;;;;19.12;35.46;97729.88;8402243;28;20199;-64
2021/04/21 13:24:46;;;;;;;11.10;6.83;;;;;;;19.08;35.92;97725.03;8402497;28;20202;-64
2021/04/21 13:28:51;;;;;;;11.60;6.80;;;;;;;19.60;35.76;97746.88;8401561;28;20247;-64
2021/04/21 13:32:56;;;;;;;11.73;6.60;;;;;;;20.02;34.49;97736.31;8403085;28;20238;-64
2021/04/21 13:37:00;;;;;;;8.60;6.20;;;;;;;20.09;33.61;97736.63;8401454;28;20368;-64
2021/04/21 13:41:03;;;;;;;7.33;5.70;;;;;;;20.49;32.78;97736.59;8402327;28;20199;-65
2021/04/21 13:45:07;;;;;;;6.63;5.33;;;;;;;20.69;32.34;97739.25;8401495;28;20207;-65
2021/04/21 13:49:09;;;;;;;9.23;5.40;;;;;;;20.78;31.69;97725.28;8400599;28;20203;-64
2021/04/21 13:53:12;;;;;;;8.20;5.10;;;;;;;20.93;31.45;97730.16;8401750;28;20481;-65
2021/04/21 13:57:14;;;;;;;9.47;5.40;;;;;;;20.81;31.13;97725.03;8401362;28;20230;-64
2021/04/21 14:01:16;;;;;;;6.80;5.07;;;;;;;21.17;31.10;97722.66;8401864;28;20199;-64
2021/04/21 14:05:18;;;;;;;6.87;5.10;;;;;;;20.95;31.10;97705.34;8401838;28;20646;-64
2021/04/21 14:09:21;;;;;;;7.37;5.17;;;;;;;21.41;30.93;97713.44;8401048;28;20203;-63
2021/04/21 14:13:23;;;;;;;6.20;5.60;;;;;;;21.36;31.49;97705.97;8399843;28;20279;-64
2021/04/21 14:17:25;;;;;;;5.40;4.70;;;;;;;21.70;31.85;97705.47;8398112;28;20241;-64
2021/04/21 14:21:27;;;;;;;11.40;5.97;;;;;;;21.51;31.80;97705.53;8399182;28;20235;-64
2021/04/21 14:25:30;;;;;;;7.83;6.30;;;;;;;20.92;32.16;97699.50;8399591;28;20678;-64
2021/04/21 14:29:32;;;;;;;7.73;5.67;;;;;;;20.98;32.22;97698.94;8399200;28;20226;-63
2021/04/21 14:33:34;;;;;;;19.30;6.30;;;;;;;20.72;33.24;97683.75;8399847;28;20203;-64
2021/04/21 14:37:36;;;;;;;6.13;5.30;;;;;;;21.46;32.37;97690.19;8394368;28;20226;-63
2021/04/21 14:41:40;;;;;;;9.03;7.00;;;;;;;21.17;30.80;97692.81;8366476;28;20196;-64
2021/04/21 14:45:43;;;;;;;7.53;6.03;;;;;;;21.53;30.88;97690.41;8366571;28;20208;-63
2021/04/21 14:49:45;;;;;;;8.20;7.13;;;;;;;21.23;30.74;97687.84;8366966;28;20608;-63
2021/04/21 14:53:47;;;;;;;10.77;6.53;;;;;;;21.43;29.91;97685.97;8366024;28;20204;-63
2021/04/21 14:57:51;;;;;;;16.67;5.53;;;;;;;21.57;35.33;97687.38;8367974;28;20320;-68
2021/04/21 15:01:53;;;;;;;10.17;6.40;;;;;;;21.67;33.07;97688.16;8366793;28;20636;-66
2021/04/21 15:05:55;;;;;;;13.27;5.77;;;;;;;21.86;32.93;97679.34;8365983;28;20208;-66
2021/04/21 15:09:57;;;;;;;8.57;5.30;;;;;;;21.79;31.94;97683.50;8365748;28;20244;-68
2021/04/21 15:14:00;;;;;;;10.93;5.80;;;;;;;21.68;31.36;97681.06;8366297;28;20620;-67
2021/04/21 15:18:02;;;;;;;11.03;5.83;;;;;;;21.53;32.38;97682.50;8365418;28;20224;-67
2021/04/21 15:22:04;;;;;;;7.80;5.43;;;;;;;21.65;31.90;97682.19;8365421;28;20570;-67
2021/04/21 15:26:08;;;;;;;9.70;5.30;;;;;;;21.47;31.80;97678.66;8364358;28;20206;-68
2021/04/21 15:30:12;;;;;;;9.23;5.20;;;;;;;21.44;31.69;97679.78;8365718;28;20677;-60
2021/04/21 15:34:15;;;;;;;7.10;5.50;;;;;;;20.71;31.74;97674.16;8364231;28;20205;-59
2021/04/21 15:38:17;;;;;;;7.77;5.37;;;;;;;20.82;32.10;97674.03;8364982;28;20324;-60
2021/04/21 15:42:19;;;;;;;11.40;5.20;;;;;;;21.09;32.10;97680.38;8364899;28;20200;-62
2021/04/21 15:46:22;;;;;;;12.00;5.40;;;;;;;21.31;31.56;97673.97;8364534;28;20226;-61
2021/04/21 15:50:24;;;;;;;11.67;5.27;;;;;;;21.34;31.55;97672.84;8364421;28;20214;-60
2021/04/21 15:54:26;;;;;;;16.03;5.87;;;;;;;20.74;30.83;97673.91;8364637;28;20536;-61
2021/04/21 15:58:28;;;;;;;25.50;6.63;;;;;;;20.62;33.05;97667.09;8363974;28;20205;-60
2021/04/21 16:02:37;;;;;;;17.43;5.73;;;;;;;20.51;33.97;97665.44;8364606;28;20213;-61
2021/04/21 16:06:39;;;;;;;12.70;5.67;;;;;;;20.38;33.15;97667.50;8364866;28;20668;-60
2021/04/21 16:10:41;;;;;;;15.57;5.90;;;;;;;20.10;32.86;97667.31;8362946;28;20524;-61
2021/04/21 16:14:44;;;;;;;13.73;5.70;;;;;;;20.13;33.59;97658.34;8363990;28;20627;-61
2021/04/21 16:18:48;;;;;;;19.50;6.47;;;;;;;19.93;34.44;97668.78;8363380;28;20273;-69
2021/04/21 16:22:51;;;;;;;10.40;7.00;;;;;;;19.48;32.73;97669.97;8363367;28;20222;-65
2021/04/21 16:26:53;;;;;;;15.77;5.73;;;;;;;19.56;35.26;97673.75;8363903;28;20230;-68
2021/04/21 16:30:55;;;;;;;13.53;6.43;;;;;;;19.36;35.87;97678.06;8362242;28;20275;-67
2021/04/21 16:34:58;;;;;;;11.13;6.33;;;;;;;19.08;38.10;97685.66;8363923;28;20224;-68
2021/04/21 16:39:00;;;;;;;16.43;9.53;;;;;;;19.06;38.85;97690.19;8363372;28;20200;-67
2021/04/21 16:43:02;;;;;;;14.17;10.27;;;;;;;18.79;39.42;97685.41;8362966;28;20204;-70
2021/04/21 16:47:04;;;;;;;12.87;10.37;;;;;;;18.72;39.04;97692.94;8362442;28;20267;-69
2021/04/21 16:51:07;;;;;;;14.47;8.60;;;;;;;18.76;39.60;97702.22;8373731;28;20242;-69
2021/04/21 16:55:10;;;;;;;8.87;7.47;;;;;;;18.89;38.77;97712.59;8362057;28;20583;-69
2021/04/21 16:59:12;;;;;;;8.33;7.17;;;;;;;18.87;38.59;97707.47;8362463;28;20654;-69
2021/04/21 17:03:14;;;;;;;10.77;8.50;;;;;;;18.44;39.20;97705.69;8362069;28;20196;-69
2021/04/21 17:07:17;;;;;;;9.33;8.43;;;;;;;18.08;39.71;97707.66;8361721;28;20203;-64
2021/04/21 17:11:20;;;;;;;10.40;9.23;;;;;;;17.71;40.05;97722.78;8375965;28;20269;-64
2021/04/21 17:15:22;;;;;;;11.57;10.37;;;;;;;17.07;41.36;97723.28;8368660;28;20227;-64
2021/04/21 17:19:24;;;;;;;9.63;8.73;;;;;;;16.78;42.16;97723.63;8363825;28;20242;-64
2021/04/21 17:23:27;;;;;;;9.60;7.83;;;;;;;16.36;43.06;97716.16;8363243;28;20280;-64
2021/04/21 17:27:29;;;;;;;9.03;8.13;;;;;;;16.44;43.58;97723.44;8362322;28;20211;-64
2021/04/21 17:31:32;;;;;;;9.70;7.30;;;;;;;16.59;43.25;97722.34;8361741;28;20236;-65
2021/04/21 17:35:36;;;;;;;9.50;7.77;;;;;;;16.66;42.90;97722.75;8362116;28;20228;-64
2021/04/21 17:39:39;;;;;;;13.50;9.27;;;;;;;16.39;43.70;97728.16;8363677;28;20212;-64
2021/04/21 17:43:43;;;;;;;11.33;9.47;;;;;;;16.64;43.53;97732.47;8364117;28;20640;-64
2021/04/21 17:47:46;;;;;;;15.80;14.03;;;;;;;16.73;43.33;97757.94;8363302;28;20242;-64
2021/04/21 17:51:51;;;;;;;7.90;7.10;;;;;;;16.88;43.12;97770.88;8365177;28;20295;-63
2021/04/21 17:55:55;;;;;;;7.27;6.53;;;;;;;16.90;43.42;97795.13;8367648;28;20282;-65
2021/04/21 17:59:56;;;;;;;9.40;7.73;;;;;;;16.79;44.25;97806.34;8367682;28;20226;-64
2021/04/21 18:03:58;;;;;;;7.47;5.87;;;;;;;16.32;47.82;97818.41;8367696;28;20196;-64
2021/04/21 18:08:00;;;;;;;9.90;7.53;;;;;;;15.96;50.91;97817.41;8367602;28;20207;-64
2021/04/21 18:12:03;;;;;;;8.93;6.47;;;;;;;16.01;51.74;97823.13;8367237;28;20222;-64
2021/04/21 18:16:05;;;;;;;14.93;6.67;;;;;;;15.93;52.12;97830.66;8367169;28;20571;-64
2021/04/21 18:20:10;;;;;;;8.93;6.60;;;;;;;15.58;51.58;97831.25;8367524;28;20196;-64
2021/04/21 18:24:13;;;;;;;8.70;7.20;;;;;;;15.60;53.12;97831.97;8369575;28;20199;-64
2021/04/21 18:28:16;;;;;;;6.87;5.97;;;;;;;15.78;51.28;97832.53;8366392;28;20643;-64
2021/04/21 18:32:18;;;;;;;8.67;6.57;;;;;;;15.60;51.27;97826.75;8365684;28;20246;-63
2021/04/21 18:36:21;;;;;;;7.60;5.70;;;;;;;15.50;50.68;97804.81;8365952;28;20230;-64
2021/04/21 18:40:23;;;;;;;7.03;5.67;;;;;;;15.42;51.46;97797.50;8367185;28;20665;-64
2021/04/21 18:44:26;;;;;;;5.00;4.47;;;;;;;15.23;52.08;97790.91;8366789;28;20301;-63
2021/04/21 18:48:28;;;;;;;6.50;5.00;;;;;;;15.33;51.34;97782.47;8365358;28;20299;-64
2021/04/21 18:52:30;;;;;;;6.90;5.07;;;;;;;15.20;51.68;97779.84;8365101;28;20196;-63
2021/04/21 18:56:32;;;;;;;11.60;6.87;;;;;;;15.42;50.02;97768.78;8366600;28;20223;-64
2021/04/21 19:00:35;;;;;;;7.67;5.97;;;;;;;15.42;52.18;97772.25;8365888;28;20281;-64